createdAt,value
2023-03-19T00:00:07.881Z,87.25
2023-03-19T00:02:40.434Z,88.00
2023-03-19T00:05:12.797Z,88.52
2023-03-19T00:07:45.284Z,88.48
2023-03-19T00:10:18.462Z,89.11
2023-03-19T00:12:50.882Z,88.20
2023-03-19T00:15:23.181Z,87.30
2023-03-19T00:17:55.949Z,88.23
2023-03-19T00:20:28.262Z,88.74
2023-03-19T00:23:01.037Z,89.96
2023-03-19T00:25:34.179Z,90.89
2023-03-19T00:28:06.607Z,91.41
2023-03-19T00:30:39.278Z,91.33
2023-03-19T00:33:11.628Z,91.38
2023-03-19T00:35:43.980Z,91.91
2023-03-19T00:38:16.312Z,92.00
2023-03-19T00:40:49.306Z,91.76
2023-03-19T00:43:21.718Z,91.79
2023-03-19T00:45:54.244Z,92.16
2023-03-19T00:48:26.615Z,91.73
2023-03-19T00:51:02.280Z,92.02
2023-03-19T00:53:37.093Z,91.31
2023-03-19T00:56:11.567Z,91.27
2023-03-19T00:58:44.478Z,91.45
2023-03-19T01:01:18.350Z,91.43
2023-03-19T01:03:50.732Z,92.11
2023-03-19T01:06:23.033Z,92.04
2023-03-19T01:08:55.411Z,92.08
2023-03-19T01:11:28.446Z,92.83
2023-03-19T01:14:00.919Z,92.85
2023-03-19T01:16:34.093Z,92.46
2023-03-19T01:19:06.913Z,92.80
2023-03-19T01:21:39.759Z,92.51
2023-03-19T01:24:12.201Z,93.68
2023-03-19T01:26:45.782Z,93.91
2023-03-19T01:29:24.574Z,94.30
2023-03-19T01:31:57.253Z,94.86
2023-03-19T01:35:09.272Z,95.02
2023-03-19T01:37:42.094Z,95.34
2023-03-19T01:40:15.301Z,95.39
2023-03-19T01:42:53.603Z,95.30
2023-03-19T01:46:08.413Z,95.33
2023-03-19T01:48:59.653Z,95.57
2023-03-19T01:51:38.248Z,95.86
2023-03-19T01:54:25.254Z,95.05
2023-03-19T01:57:18.717Z,96.21
2023-03-19T02:00:08.303Z,96.26
2023-03-19T02:02:53.399Z,96.31
2023-03-19T02:06:05.603Z,96.44
2023-03-19T02:08:40.470Z,95.97
2023-03-19T02:11:13.964Z,96.28
2023-03-19T02:13:46.748Z,95.98
2023-03-19T02:16:20.206Z,96.67
2023-03-19T02:18:53.510Z,95.76
2023-03-19T02:21:26.000Z,95.49
2023-03-19T02:24:07.120Z,95.86
2023-03-19T02:26:52.791Z,96.18
2023-03-19T02:29:25.538Z,96.27
2023-03-19T02:31:58.657Z,96.35
2023-03-19T02:34:36.773Z,95.86
2023-03-19T02:37:16.369Z,95.93
2023-03-19T02:39:57.084Z,95.88
2023-03-19T02:42:30.582Z,96.20
2023-03-19T02:45:03.312Z,96.87
2023-03-19T02:47:35.868Z,96.74
2023-03-19T02:50:09.616Z,96.48
2023-03-19T02:52:41.901Z,96.55
2023-03-19T02:55:14.408Z,98.06
2023-03-19T02:57:47.712Z,98.30
2023-03-19T03:00:20.437Z,98.19
2023-03-19T03:02:52.795Z,97.84
2023-03-19T03:05:25.234Z,96.64
2023-03-19T03:07:58.067Z,96.92
2023-03-19T03:10:31.456Z,97.41
2023-03-19T03:13:04.849Z,97.53
2023-03-19T03:15:37.534Z,97.58
2023-03-19T03:18:10.471Z,97.56
2023-03-19T03:20:43.019Z,97.02
2023-03-19T03:23:16.354Z,97.06
2023-03-19T03:25:49.329Z,97.20
2023-03-19T03:28:22.532Z,98.58
2023-03-19T03:30:58.489Z,98.47
2023-03-19T03:33:30.930Z,98.62
2023-03-19T03:36:03.794Z,98.66
2023-03-19T03:38:36.511Z,97.95
2023-03-19T03:41:08.924Z,98.38
2023-03-19T03:43:42.373Z,98.46
2023-03-19T03:46:14.815Z,100.00
2023-03-19T03:48:48.649Z,100.00
2023-03-19T03:51:21.533Z,100.00
2023-03-19T03:53:53.950Z,100.00
2023-03-19T03:56:26.511Z,100.00
2023-03-19T03:59:00.445Z,100.00
2023-03-19T04:01:33.232Z,100.00
2023-03-19T04:04:05.606Z,100.00
2023-03-19T04:06:38.270Z,100.00
2023-03-19T04:09:21.148Z,100.00
2023-03-19T04:11:53.452Z,100.00
2023-03-19T04:14:27.189Z,100.00
2023-03-19T04:16:59.816Z,99.98
2023-03-19T04:19:32.859Z,100.00
2023-03-19T04:22:07.022Z,100.00
2023-03-19T04:24:39.303Z,100.00
2023-03-19T04:27:11.835Z,100.00
2023-03-19T04:29:46.491Z,100.00
2023-03-19T04:32:19.197Z,100.00
2023-03-19T04:34:52.104Z,100.00
2023-03-19T04:37:24.707Z,100.00
2023-03-19T04:39:58.912Z,100.00
2023-03-19T04:42:32.190Z,100.00
2023-03-19T04:45:21.297Z,100.00
2023-03-19T04:47:53.700Z,100.00
2023-03-19T04:50:27.247Z,100.00
2023-03-19T04:52:59.900Z,100.00
2023-03-19T04:55:33.424Z,100.00
2023-03-19T04:58:20.718Z,100.00
2023-03-19T05:01:01.535Z,100.00
2023-03-19T05:03:57.013Z,100.00
2023-03-19T05:06:30.594Z,100.00
2023-03-19T05:09:03.340Z,100.00
2023-03-19T05:11:36.068Z,100.00
2023-03-19T05:14:17.025Z,100.00
2023-03-19T05:17:06.803Z,100.00
2023-03-19T05:20:04.143Z,100.00
2023-03-19T05:22:38.172Z,100.00
2023-03-19T05:25:10.948Z,100.00
2023-03-19T05:27:45.605Z,100.00
2023-03-19T05:30:26.821Z,100.00
2023-03-19T05:33:00.996Z,100.00
2023-03-19T05:35:40.421Z,100.00
2023-03-19T05:38:23.776Z,100.00
2023-03-19T05:41:04.912Z,100.00
2023-03-19T05:43:46.785Z,100.00
2023-03-19T05:46:29.560Z,100.00
2023-03-19T05:49:03.184Z,100.00
2023-03-19T05:51:36.154Z,100.00
2023-03-19T05:54:08.885Z,100.00
2023-03-19T05:56:57.189Z,100.00
2023-03-19T05:59:42.330Z,100.00
2023-03-19T06:02:36.570Z,100.00
2023-03-19T06:05:32.705Z,100.00
2023-03-19T06:08:25.528Z,100.00
2023-03-19T06:11:14.670Z,100.00
2023-03-19T06:13:48.917Z,100.00
2023-03-19T06:16:22.546Z,100.00
2023-03-19T06:18:59.049Z,100.00
2023-03-19T06:21:35.737Z,100.00
2023-03-19T06:24:09.508Z,99.38
2023-03-19T06:26:41.882Z,98.50
2023-03-19T06:29:20.112Z,96.13
2023-03-19T06:31:58.182Z,94.23
2023-03-19T06:34:51.108Z,90.38
2023-03-19T06:37:24.699Z,87.59
2023-03-19T06:39:57.385Z,84.32
2023-03-19T06:42:30.050Z,81.73
2023-03-19T06:45:02.872Z,79.72
2023-03-19T06:47:35.211Z,78.60
2023-03-19T06:50:08.733Z,75.71
2023-03-19T06:52:41.886Z,75.94
2023-03-19T06:55:14.182Z,76.64
2023-03-19T06:57:48.550Z,77.09
2023-03-19T07:00:21.189Z,76.72
2023-03-19T07:02:53.464Z,71.72
2023-03-19T07:05:25.895Z,70.79
2023-03-19T07:07:59.084Z,68.76
2023-03-19T07:10:31.415Z,68.60
2023-03-19T07:13:03.810Z,69.36
2023-03-19T07:15:36.104Z,69.23
2023-03-19T07:18:08.378Z,66.03
2023-03-19T07:20:40.642Z,66.25
2023-03-19T07:23:13.600Z,64.87
2023-03-19T07:25:46.966Z,62.68
2023-03-19T07:28:19.255Z,63.83
2023-03-19T07:30:51.751Z,61.04
2023-03-19T07:33:24.137Z,60.30
2023-03-19T07:35:56.638Z,60.61
2023-03-19T07:38:29.829Z,58.90
2023-03-19T07:41:03.049Z,59.46
2023-03-19T07:43:35.511Z,60.92
2023-03-19T07:46:08.149Z,60.28
2023-03-19T07:48:40.598Z,56.70
2023-03-19T07:51:12.985Z,53.47
2023-03-19T07:53:45.978Z,52.36
2023-03-19T07:56:18.322Z,54.61
2023-03-19T07:58:51.052Z,53.69
2023-03-19T08:01:23.404Z,55.68
2023-03-19T08:03:55.706Z,54.65
2023-03-19T08:06:28.020Z,54.85
2023-03-19T08:09:01.466Z,54.45
2023-03-19T08:11:33.894Z,53.31
2023-03-19T08:14:06.301Z,53.94
2023-03-19T08:16:38.646Z,54.35
2023-03-19T08:19:10.993Z,52.58
2023-03-19T08:21:43.339Z,52.65
2023-03-19T08:24:16.975Z,53.51
2023-03-19T08:26:50.174Z,53.28
2023-03-19T08:29:22.536Z,54.25
2023-03-19T08:31:55.937Z,54.71
2023-03-19T08:34:28.259Z,53.39
2023-03-19T08:37:01.000Z,52.81
2023-03-19T08:39:34.130Z,52.57
2023-03-19T08:42:06.760Z,52.52
2023-03-19T08:44:39.242Z,52.35
2023-03-19T08:47:11.814Z,52.92
2023-03-19T08:49:44.356Z,52.62
2023-03-19T08:52:16.863Z,51.86
2023-03-19T08:54:49.907Z,50.20
2023-03-19T08:57:22.619Z,50.45
2023-03-19T08:59:55.032Z,50.46
2023-03-19T09:02:27.510Z,51.06
2023-03-19T09:04:59.899Z,49.64
2023-03-19T09:07:32.185Z,49.44
2023-03-19T09:10:06.589Z,46.54
2023-03-19T09:12:39.212Z,47.31
2023-03-19T09:15:11.500Z,48.05
2023-03-19T09:17:44.019Z,48.31
2023-03-19T09:20:16.416Z,47.84
2023-03-19T09:22:48.873Z,46.75
2023-03-19T09:25:21.917Z,47.82
2023-03-19T09:27:54.311Z,44.43
2023-03-19T09:30:26.818Z,45.08
2023-03-19T09:32:59.247Z,43.31
2023-03-19T09:35:32.440Z,39.91
2023-03-19T09:38:05.357Z,43.25
2023-03-19T09:40:43.315Z,40.31
2023-03-19T09:43:35.391Z,40.28
2023-03-19T09:46:14.105Z,38.52
2023-03-19T09:48:55.824Z,35.66
2023-03-19T09:51:33.699Z,37.45
2023-03-19T09:54:13.597Z,39.53
2023-03-19T09:56:46.524Z,37.64
2023-03-19T09:59:19.824Z,36.38
2023-03-19T10:01:58.064Z,35.59
2023-03-19T10:04:42.204Z,35.98
2023-03-19T10:07:29.018Z,35.52
2023-03-19T10:10:22.303Z,37.20
2023-03-19T10:13:07.223Z,36.75
2023-03-19T10:15:43.157Z,36.23
2023-03-19T10:18:18.678Z,35.43
2023-03-19T10:20:55.981Z,34.88
2023-03-19T10:23:45.386Z,36.32
2023-03-19T10:26:19.163Z,34.82
2023-03-19T10:29:03.978Z,34.49
2023-03-19T10:31:43.735Z,37.59
2023-03-19T10:34:33.159Z,34.44
2023-03-19T10:37:13.386Z,35.54
2023-03-19T10:39:46.821Z,34.57
2023-03-19T10:42:33.206Z,34.78
2023-03-19T10:45:18.881Z,34.31
2023-03-19T10:47:52.518Z,33.57
2023-03-19T10:50:30.339Z,32.38
2023-03-19T10:53:07.020Z,32.54
2023-03-19T10:55:46.724Z,33.01
2023-03-19T10:58:20.013Z,32.12
2023-03-19T11:00:58.257Z,31.69
2023-03-19T11:03:33.411Z,33.22
2023-03-19T11:06:16.717Z,33.36
2023-03-19T11:08:55.106Z,33.40
2023-03-19T11:11:34.433Z,33.41
2023-03-19T11:14:09.265Z,33.20
2023-03-19T11:16:56.235Z,33.63
2023-03-19T11:19:30.108Z,31.60
2023-03-19T11:22:09.811Z,33.87
2023-03-19T11:24:49.882Z,34.23
2023-03-19T11:27:31.109Z,32.07
2023-03-19T11:30:12.904Z,32.52
2023-03-19T11:33:15.188Z,33.67
2023-03-19T11:35:57.944Z,32.88
2023-03-19T11:38:39.077Z,32.63
2023-03-19T11:41:20.715Z,33.04
2023-03-19T11:44:02.041Z,33.70
2023-03-19T11:46:41.020Z,34.76
2023-03-19T11:49:39.749Z,33.69
2023-03-19T11:52:18.001Z,34.41
2023-03-19T11:55:04.038Z,33.04
2023-03-19T11:57:55.984Z,34.45
2023-03-19T12:00:34.210Z,33.53
2023-03-19T12:03:46.819Z,34.99
2023-03-19T12:06:29.778Z,34.67
2023-03-19T12:09:09.548Z,32.59
2023-03-19T12:11:52.031Z,33.68
2023-03-19T12:14:36.067Z,34.24
2023-03-19T12:17:46.655Z,33.68
2023-03-19T12:20:48.771Z,34.08
2023-03-19T12:23:36.154Z,34.31
2023-03-19T12:26:12.472Z,34.44
2023-03-19T12:28:51.835Z,33.64
2023-03-19T12:31:54.849Z,32.59
2023-03-19T12:34:33.554Z,33.46
2023-03-19T12:37:17.049Z,32.20
2023-03-19T12:40:04.933Z,32.68
2023-03-19T12:42:39.659Z,33.92
2023-03-19T12:45:26.112Z,33.26
2023-03-19T12:48:02.799Z,33.91
2023-03-19T12:50:39.298Z,33.91
2023-03-19T12:53:32.149Z,33.81
2023-03-19T12:56:12.483Z,33.74
2023-03-19T12:58:55.185Z,32.95
2023-03-19T13:01:33.477Z,33.79
2023-03-19T13:04:11.457Z,33.38
2023-03-19T13:06:49.452Z,32.88
2023-03-19T13:09:29.623Z,32.45
2023-03-19T13:12:09.803Z,32.79
2023-03-19T13:14:52.300Z,31.74
2023-03-19T13:17:30.947Z,32.82
2023-03-19T13:20:15.470Z,33.79
2023-03-19T13:22:54.900Z,33.40
2023-03-19T13:25:32.055Z,32.21
2023-03-19T13:28:09.797Z,33.49
2023-03-19T13:30:59.307Z,33.14
2023-03-19T13:33:34.401Z,33.29
2023-03-19T13:36:13.859Z,33.78
2023-03-19T13:38:48.107Z,32.69
2023-03-19T13:41:50.172Z,32.89
2023-03-19T13:44:35.150Z,31.60
2023-03-19T13:47:39.543Z,31.67
2023-03-19T13:50:50.333Z,31.52
2023-03-19T13:53:35.585Z,32.33
2023-03-19T13:56:22.540Z,32.06
2023-03-19T13:59:23.391Z,32.12
2023-03-19T14:01:57.164Z,31.90
2023-03-19T14:04:31.552Z,31.56
2023-03-19T14:07:12.870Z,31.44
2023-03-19T14:09:48.596Z,32.04
2023-03-19T14:12:25.502Z,31.99
2023-03-19T14:15:01.563Z,30.78
2023-03-19T14:17:37.129Z,30.27
2023-03-19T14:20:37.053Z,31.40
2023-03-19T14:23:23.302Z,31.54
2023-03-19T14:26:06.602Z,31.51
2023-03-19T14:28:46.682Z,32.19
2023-03-19T14:31:26.069Z,32.80
2023-03-19T14:34:02.196Z,33.31
2023-03-19T14:36:38.098Z,32.36
2023-03-19T14:39:20.936Z,32.98
2023-03-19T14:42:01.420Z,31.99
2023-03-19T14:45:08.382Z,31.53
2023-03-19T14:48:15.575Z,32.89
2023-03-19T14:51:12.427Z,33.51
2023-03-19T14:53:49.025Z,33.37
2023-03-19T14:56:25.817Z,33.57
2023-03-19T14:59:02.920Z,33.73
2023-03-19T15:01:40.422Z,33.60
2023-03-19T15:04:15.398Z,33.64
2023-03-19T15:06:54.526Z,34.00
2023-03-19T15:09:30.975Z,33.55
2023-03-19T15:12:33.008Z,34.13
2023-03-19T15:15:20.480Z,34.08
2023-03-19T15:18:04.276Z,34.54
2023-03-19T15:20:41.721Z,33.79
2023-03-19T15:23:26.787Z,34.09
2023-03-19T15:26:02.351Z,34.63
2023-03-19T15:28:46.713Z,34.57
2023-03-19T15:31:31.933Z,35.04
2023-03-19T15:34:21.498Z,35.79
2023-03-19T15:36:57.903Z,36.32
2023-03-19T15:39:34.557Z,35.61
2023-03-19T15:42:06.961Z,36.14
2023-03-19T15:44:42.834Z,36.38
2023-03-19T15:47:20.247Z,36.97
2023-03-19T15:49:56.740Z,37.04
2023-03-19T15:52:31.884Z,36.79
2023-03-19T15:55:06.736Z,36.89
2023-03-19T15:57:41.137Z,36.96
2023-03-19T16:00:15.039Z,36.99
2023-03-19T16:02:50.821Z,37.86
2023-03-19T16:05:25.369Z,37.43
2023-03-19T16:07:59.656Z,37.82
2023-03-19T16:10:36.355Z,37.16
2023-03-19T16:13:27.855Z,37.23
2023-03-19T16:16:05.350Z,37.54
2023-03-19T16:18:42.632Z,37.67
2023-03-19T16:21:17.430Z,38.34
2023-03-19T16:24:00.875Z,38.95
2023-03-19T16:26:39.064Z,38.93
2023-03-19T16:29:20.177Z,39.56
2023-03-19T16:31:56.556Z,39.99
2023-03-19T16:34:40.140Z,40.49
2023-03-19T16:37:34.126Z,40.99
2023-03-19T16:40:39.597Z,40.95
2023-03-19T16:43:17.943Z,41.49
2023-03-19T16:45:51.774Z,41.99
2023-03-19T16:48:24.042Z,42.88
2023-03-19T16:50:56.638Z,42.27
2023-03-19T16:53:30.813Z,42.95
2023-03-19T16:56:03.460Z,42.79
2023-03-19T16:58:41.756Z,42.98
2023-03-19T17:01:17.364Z,42.84
2023-03-19T17:03:50.920Z,43.23
2023-03-19T17:06:23.304Z,42.93
2023-03-19T17:08:55.588Z,43.30
2023-03-19T17:11:31.133Z,44.43
2023-03-19T17:14:06.072Z,45.67
2023-03-19T17:16:38.550Z,46.02
2023-03-19T17:19:17.324Z,44.45
2023-03-19T17:21:52.880Z,43.84
2023-03-19T17:24:27.407Z,44.27
2023-03-19T17:27:01.798Z,43.93
2023-03-19T17:29:34.871Z,44.79
2023-03-19T17:32:16.292Z,44.33
2023-03-19T17:34:48.708Z,45.49
2023-03-19T17:37:21.106Z,45.46
2023-03-19T17:39:54.001Z,45.83
2023-03-19T17:42:26.421Z,48.23
2023-03-19T17:45:00.202Z,47.70
2023-03-19T17:47:34.582Z,48.98
2023-03-19T17:50:13.476Z,49.98
2023-03-19T17:52:46.376Z,50.63
2023-03-19T17:55:20.527Z,51.97
2023-03-19T17:57:53.479Z,52.05
2023-03-19T18:00:26.460Z,53.46
2023-03-19T18:02:58.800Z,53.25
2023-03-19T18:05:31.141Z,53.64
2023-03-19T18:08:03.447Z,54.76
2023-03-19T18:10:36.267Z,55.22
2023-03-19T18:13:09.205Z,55.13
2023-03-19T18:15:44.470Z,56.08
2023-03-19T18:18:20.645Z,56.37
2023-03-19T18:20:53.023Z,55.77
2023-03-19T18:23:25.349Z,56.31
2023-03-19T18:25:57.607Z,57.02
2023-03-19T18:28:30.001Z,56.96
2023-03-19T18:31:03.626Z,57.62
2023-03-19T18:33:35.919Z,58.60
2023-03-19T18:36:08.583Z,58.56
2023-03-19T18:38:40.892Z,59.18
2023-03-19T18:41:18.033Z,59.40
2023-03-19T18:43:50.303Z,59.67
2023-03-19T18:46:25.974Z,60.48
2023-03-19T18:49:00.970Z,60.08
2023-03-19T18:51:33.391Z,60.45
2023-03-19T18:54:06.030Z,60.21
2023-03-19T18:56:38.884Z,60.90
2023-03-19T18:59:20.798Z,61.65
2023-03-19T19:02:00.123Z,62.01
2023-03-19T19:04:32.708Z,62.50
2023-03-19T19:07:04.955Z,63.56
2023-03-19T19:09:37.275Z,63.86
2023-03-19T19:12:13.470Z,63.56
2023-03-19T19:14:46.577Z,64.30
2023-03-19T19:17:23.353Z,64.46
2023-03-19T19:19:55.782Z,64.85
2023-03-19T19:22:29.122Z,64.58
2023-03-19T19:25:01.509Z,65.36
2023-03-19T19:27:33.849Z,65.58
2023-03-19T19:30:10.321Z,65.87
2023-03-19T19:32:44.866Z,66.42
2023-03-19T19:35:22.753Z,67.36
2023-03-19T19:37:55.642Z,68.04
2023-03-19T19:40:30.892Z,68.16
2023-03-19T19:43:03.380Z,67.68
2023-03-19T19:45:37.802Z,68.34
2023-03-19T19:48:15.367Z,69.15
2023-03-19T19:50:48.182Z,68.93
2023-03-19T19:53:22.619Z,68.65
2023-03-19T19:55:55.225Z,69.03
2023-03-19T19:58:30.640Z,69.33
2023-03-19T20:01:04.635Z,70.17
2023-03-19T20:03:37.972Z,70.72
2023-03-19T20:06:11.254Z,70.38
2023-03-19T20:08:44.272Z,70.44
2023-03-19T20:11:18.776Z,70.97
2023-03-19T20:13:54.808Z,71.91
2023-03-19T20:16:28.021Z,73.05
2023-03-19T20:19:01.393Z,73.38
2023-03-19T20:21:33.812Z,72.97
2023-03-19T20:24:06.592Z,73.09
2023-03-19T20:26:39.010Z,73.31
2023-03-19T20:29:14.142Z,73.37
2023-03-19T20:31:46.639Z,73.59
2023-03-19T20:34:36.360Z,73.86
2023-03-19T20:37:11.055Z,74.24
2023-03-19T20:39:43.754Z,74.35
2023-03-19T20:42:16.271Z,74.66
2023-03-19T20:44:52.002Z,75.47
2023-03-19T20:47:25.020Z,75.27
2023-03-19T20:49:58.213Z,75.12
2023-03-19T20:52:30.593Z,74.98
2023-03-19T20:55:03.349Z,75.83
2023-03-19T20:57:35.785Z,75.67
2023-03-19T21:00:21.604Z,76.09
2023-03-19T21:02:55.623Z,76.39
2023-03-19T21:05:35.785Z,76.23
2023-03-19T21:08:13.999Z,76.43
2023-03-19T21:10:48.251Z,76.96
2023-03-19T21:13:21.140Z,77.40
2023-03-19T21:15:53.974Z,77.06
2023-03-19T21:18:26.570Z,76.96
2023-03-19T21:20:59.740Z,77.58
2023-03-19T21:23:36.534Z,77.32
2023-03-19T21:26:15.411Z,77.94
2023-03-19T21:28:49.968Z,78.46
2023-03-19T21:31:22.335Z,78.97
2023-03-19T21:33:57.210Z,78.86
2023-03-19T21:36:31.765Z,79.18
2023-03-19T21:39:04.244Z,78.84
2023-03-19T21:41:37.136Z,78.47
2023-03-19T21:44:14.316Z,78.67
2023-03-19T21:46:48.206Z,79.31
2023-03-19T21:49:21.169Z,79.71
2023-03-19T21:51:56.328Z,80.48
2023-03-19T21:54:28.794Z,80.34
2023-03-19T21:57:01.546Z,80.45
2023-03-19T21:59:33.943Z,80.34
2023-03-19T22:02:37.971Z,80.40
2023-03-19T22:05:22.372Z,79.84
2023-03-19T22:07:55.880Z,80.67
2023-03-19T22:10:29.120Z,80.90
2023-03-19T22:13:02.077Z,80.27
2023-03-19T22:15:36.925Z,81.28
2023-03-19T22:18:13.585Z,80.40
2023-03-19T22:20:46.811Z,80.68
2023-03-19T22:23:21.040Z,80.70
2023-03-19T22:25:53.684Z,80.98
2023-03-19T22:28:30.863Z,81.22
2023-03-19T22:31:03.861Z,82.13
2023-03-19T22:33:36.419Z,82.24
2023-03-19T22:36:11.695Z,82.71
2023-03-19T22:38:46.131Z,82.48
2023-03-19T22:41:26.090Z,82.38
2023-03-19T22:44:00.308Z,81.71
2023-03-19T22:46:33.667Z,81.73
2023-03-19T22:49:12.765Z,81.70
2023-03-19T22:51:45.286Z,81.52
2023-03-19T22:54:18.241Z,82.00
2023-03-19T22:56:50.597Z,82.37
2023-03-19T22:59:22.967Z,82.70
2023-03-19T23:01:57.290Z,82.13
2023-03-19T23:04:31.756Z,82.06
2023-03-19T23:07:04.293Z,82.17
2023-03-19T23:09:37.425Z,81.72
2023-03-19T23:12:09.898Z,81.71
2023-03-19T23:14:42.308Z,82.85
2023-03-19T23:17:16.704Z,82.72
2023-03-19T23:19:49.780Z,82.05
2023-03-19T23:22:22.153Z,81.71
2023-03-19T23:24:55.948Z,82.64
2023-03-19T23:27:28.334Z,82.86
2023-03-19T23:30:02.347Z,83.69
2023-03-19T23:32:35.272Z,83.25
2023-03-19T23:35:15.406Z,84.01
2023-03-19T23:37:47.792Z,84.62
2023-03-19T23:40:21.917Z,84.38
2023-03-19T23:42:55.513Z,84.85
2023-03-19T23:45:34.271Z,85.16
2023-03-19T23:48:12.805Z,86.25
2023-03-19T23:50:46.589Z,86.92
2023-03-19T23:53:21.510Z,86.65
2023-03-19T23:55:57.982Z,85.80
2023-03-19T23:58:39.136Z,85.60
